Nathans Creek, North Carolina
Current Conditions -  °F | °C
As of 1:15 AM on Tuesday 21 Oct 2014 (Local Time) from KGEV Reporting Station
Broken Clouds Broken Clouds  
Wind Chill: 54°   Ceiling: 5500
Heat Index: 54°   Visibility: 10mi
Dew Point: 42°   Wind: 10mph
Humidity: 64%   Direction: 260°W
Pressure: 30"   Gusts: NA
Location:  36.484°N, 81.3801°W
Report Text: KGEV 210515Z AUTO 26009KT 10SM SCT025 SCT046 BKN055 12/05 A3000 RMK AO2 T01200054
Loading
Personal Weather Stations






























Interactive Weather Map
Tropical Storm Tracking
New forecast layout! Learn more

10-Day Weather Forecast

Advertisements
Track Severe Weather on mobile